Terminal Aerodrome Forecast
Issued by NWS

Home | Current Version | Previous Version | Text Only | Print | Product List | Glossary On
Versions: 1 2 3 4 5 6 7 8 9 10 11 12 13 14
000
FTUS44 KLZK 022320
TAFPBF
TAF
KPBF 022320Z 0300/0324 09006KT P6SM SCT100 OVC250
     FM030900 07005KT P6SM VCSH BKN050 OVC100
      TEMPO 0311/0315 -RA
     FM031500 08008KT P6SM -RA BKN025 OVC050
      TEMPO 0315/0318 5SM -RA BR OVC020
     FM031800 07008G15KT 5SM -RA BR BKN008 OVC025 PROB30 0318/0324
      2SM SHRA BR OVC008=

USA.gov is the U.S. government's official web portal to all federal, state and local government web resources and services.